< < Back
Terminal Aerodrome Forecast


Current Version              Previous Versions:   1  2  3  4  5  6  7  8  9  

Terminal Aerodrome Forecast

968
FTUS42 KGSP 251130
TAFAND
TAF
KAND 251130Z 2512/2612 25005KT P6SM SKC
     FM251900 21009KT P6SM FEW250
     FM260000 18005KT P6SM BKN130
     FM260600 23007KT P6SM BKN025 OVC050=

Latest METAR

010
SAUS70 KWBC 251400 RRC
MTRAND
METAR KAND 251356Z AUTO 21004KT 10SM CLR 03/M01 A2994 RMK AO2 SLP139
T00281006


USA.gov is the U.S. government's official web portal to all federal, state and local government web resources and services.